Time;durP1;ratioP1;P1;durP2;ratioP2;P2;SDS_P1;SDS_P2;PMS_P1;PMS_P2;Temp;Humidity;BMP_temperature;BMP_pressure;BME280_temperature;BME280_humidity;BME280_pressure;Samples;Min_cycle;Max_cycle;Signal;HPM_P1;HPM_P2
2023/06/01 00:01:52;;;;;;;0.40;0.40;;;11.00;99.90;;;;;;5091483;28;19920;-74
2023/06/01 00:04:18;;;;;;;;;;;11.00;99.90;;;;;;5108817;28;20129;-74
2023/06/01 00:06:44;;;;;;;1.30;1.30;;;11.00;99.90;;;;;;5091565;28;20368;-74
2023/06/01 00:09:10;;;;;;;0.55;0.55;;;11.00;99.90;;;;;;5091363;28;20050;-74
2023/06/01 00:11:36;;;;;;;0.40;0.40;;;11.00;99.90;;;;;;5074323;28;20122;-74
2023/06/01 00:14:02;;;;;;;0.50;0.50;;;11.00;99.90;;;;;;5068624;28;20086;-74
2023/06/01 00:16:31;;;;;;;0.45;0.45;;;11.00;99.90;;;;;;5035308;28;20040;-74
2023/06/01 00:19:00;;;;;;;0.43;0.43;;;11.00;99.90;;;;;;5051187;28;20033;-74
2023/06/01 00:21:28;;;;;;;1.08;0.98;;;11.10;99.90;;;;;;5034437;28;20045;-74
2023/06/01 00:23:53;;;;;;;0.30;0.30;;;11.10;99.90;;;;;;5051000;28;20040;-74
2023/06/01 00:26:19;;;;;;;0.32;0.32;;;11.00;99.90;;;;;;5065103;28;20051;-74
2023/06/01 00:28:45;;;;;;;0.40;0.40;;;11.00;99.90;;;;;;5071238;28;20044;-74
2023/06/01 00:31:10;;;;;;;0.30;0.30;;;11.00;99.90;;;;;;5070865;28;20044;-74
2023/06/01 00:33:36;;;;;;;0.30;0.30;;;11.00;99.90;;;;;;5069648;28;20040;-74
2023/06/01 00:36:02;;;;;;;0.40;0.40;;;11.00;99.90;;;;;;5070744;28;20076;-74
2023/06/01 00:38:27;;;;;;;0.25;0.25;;;11.00;99.90;;;;;;5070357;28;20120;-73
2023/06/01 00:40:53;;;;;;;0.35;0.35;;;11.00;99.90;;;;;;5070708;28;20044;-74
2023/06/01 00:43:20;;;;;;;0.30;0.30;;;10.90;99.90;;;;;;5082960;28;20086;-74
2023/06/01 00:45:45;;;;;;;0.50;0.50;;;11.00;99.90;;;;;;5071772;28;20056;-74
2023/06/01 00:48:12;;;;;;;0.28;0.28;;;11.00;99.90;;;;;;5055205;28;20414;-74
2023/06/01 00:50:38;;;;;;;0.45;0.45;;;10.90;99.90;;;;;;5053282;28;20055;-74
2023/06/01 00:53:09;;;;;;;0.40;0.40;;;10.90;99.90;;;;;;5070654;28;20063;-74
2023/06/01 00:55:35;;;;;;;0.40;0.40;;;10.90;99.90;;;;;;5077482;28;20039;-74
2023/06/01 00:58:02;;;;;;;0.45;0.45;;;10.90;99.90;;;;;;5090571;28;20075;-74
2023/06/01 01:00:29;;;;;;;0.22;0.22;;;10.90;99.90;;;;;;5107473;28;20442;-74
2023/06/01 01:02:56;;;;;;;0.45;0.45;;;10.90;99.90;;;;;;5107919;28;20032;-74
2023/06/01 01:05:26;;;;;;;0.38;0.38;;;10.90;99.90;;;;;;5107404;28;20388;-74
2023/06/01 01:07:52;;;;;;;0.85;0.85;;;10.90;99.90;;;;;;5108171;28;20149;-74
2023/06/01 01:10:38;;;;;;;0.32;0.32;;;10.90;99.90;;;;;;5107441;28;20052;-74
2023/06/01 01:13:12;;;;;;;0.85;0.85;;;10.90;99.90;;;;;;5067252;28;20048;-74
2023/06/01 01:15:43;;;;;;;0.40;0.40;;;10.90;99.90;;;;;;5069307;28;20048;-74
2023/06/01 01:18:19;;;;;;;1.10;1.10;;;10.90;99.90;;;;;;5070719;28;20370;-74
2023/06/01 01:20:52;;;;;;;0.30;0.30;;;10.90;99.90;;;;;;5070340;28;20033;-74
2023/06/01 01:23:43;;;;;;;0.30;0.30;;;10.90;99.90;;;;;;5069934;28;20048;-74
2023/06/01 01:26:14;;;;;;;0.40;0.40;;;10.90;99.90;;;;;;5070222;28;20075;-74
2023/06/01 01:28:49;;;;;;;0.50;0.50;;;10.90;99.90;;;;;;5053318;28;20040;-74
2023/06/01 01:31:23;;;;;;;0.40;0.40;;;10.90;99.90;;;;;;5053419;28;20044;-74
2023/06/01 01:33:51;;;;;;;0.75;0.75;;;10.90;99.90;;;;;;5069984;28;20047;-74
2023/06/01 01:36:17;;;;;;;0.30;0.30;;;10.90;99.90;;;;;;5053031;28;20131;-74
2023/06/01 01:38:43;;;;;;;0.43;0.43;;;10.90;99.90;;;;;;5069895;28;20127;-74
2023/06/01 01:41:09;;;;;;;0.63;0.63;;;10.80;99.90;;;;;;5070493;28;20145;-74
2023/06/01 01:43:35;;;;;;;0.30;0.30;;;10.90;99.90;;;;;;5083503;28;20081;-74
2023/06/01 01:46:25;;;;;;;0.50;0.50;;;10.80;99.90;;;;;;5053375;28;20056;-74
2023/06/01 01:49:05;;;;;;;0.73;0.73;;;10.80;99.90;;;;;;5069918;28;20040;-74
2023/06/01 01:51:51;;;;;;;0.30;0.30;;;10.80;99.90;;;;;;5073667;28;20114;-74
2023/06/01 01:54:18;;;;;;;0.40;0.40;;;10.80;99.90;;;;;;5076874;28;20066;-74
2023/06/01 01:56:46;;;;;;;0.20;0.20;;;10.80;99.90;;;;;;5069024;28;20054;-74
2023/06/01 01:59:12;;;;;;;0.35;0.35;;;10.80;99.90;;;;;;5069224;28;20485;-74
2023/06/01 02:01:41;;;;;;;0.30;0.30;;;10.80;99.90;;;;;;5069032;28;20064;-74
2023/06/01 02:04:07;;;;;;;0.35;0.35;;;10.80;99.90;;;;;;5069778;28;20048;-74
2023/06/01 02:06:33;;;;;;;0.68;0.68;;;10.80;99.90;;;;;;5069612;28;20118;-74
2023/06/01 02:09:00;;;;;;;;;;;10.80;99.90;;;;;;5034370;28;20055;-74
2023/06/01 02:11:26;;;;;;;0.40;0.40;;;10.80;99.90;;;;;;5049090;28;19917;-75
2023/06/01 02:13:51;;;;;;;1.58;1.33;;;10.80;99.90;;;;;;5036222;28;20043;-75
2023/06/01 02:16:17;;;;;;;0.32;0.32;;;10.90;99.90;;;;;;5069087;28;20486;-74
2023/06/01 02:18:46;;;;;;;0.60;0.60;;;10.90;99.90;;;;;;5068758;28;20131;-74
2023/06/01 02:21:15;;;;;;;0.38;0.38;;;10.80;99.90;;;;;;5069066;28;20036;-74
2023/06/01 02:23:41;;;;;;;0.28;0.28;;;10.80;99.90;;;;;;5068920;28;20036;-74
2023/06/01 02:26:10;;;;;;;2.58;1.70;;;10.80;99.90;;;;;;5069311;28;20051;-74
2023/06/01 02:28:40;;;;;;;0.30;0.30;;;10.80;99.90;;;;;;5052227;28;20119;-74
2023/06/01 02:31:07;;;;;;;0.30;0.30;;;10.80;99.90;;;;;;5069068;28;20451;-74
2023/06/01 02:33:33;;;;;;;0.40;0.40;;;10.80;99.90;;;;;;5068214;28;20296;-75
2023/06/01 02:35:59;;;;;;;0.45;0.45;;;10.90;99.90;;;;;;5068518;28;20052;-75
2023/06/01 02:38:25;;;;;;;0.20;0.20;;;10.90;99.90;;;;;;5068525;28;20040;-74
2023/06/01 02:40:51;;;;;;;0.22;0.22;;;10.90;99.90;;;;;;5068341;28;20037;-75
2023/06/01 02:43:16;;;;;;;0.70;0.70;;;10.90;99.90;;;;;;5080901;28;20063;-74
2023/06/01 02:45:42;;;;;;;0.40;0.40;;;10.90;99.90;;;;;;5069660;28;20063;-74
2023/06/01 02:48:09;;;;;;;0.40;0.40;;;10.90;99.90;;;;;;5071978;28;20072;-74
2023/06/01 02:50:35;;;;;;;;;;;10.80;99.90;;;;;;5068242;28;20052;-75
2023/06/01 02:53:01;;;;;;;0.40;0.40;;;10.90;99.90;;;;;;5084175;28;19920;-75
2023/06/01 02:55:27;;;;;;;0.38;0.38;;;10.90;99.90;;;;;;5067471;28;20451;-74
2023/06/01 02:57:52;;;;;;;1.10;0.47;;;10.90;99.90;;;;;;5051310;28;20044;-74
2023/06/01 03:00:18;;;;;;;1.80;1.70;;;10.90;99.90;;;;;;5068019;28;20413;-74
2023/06/01 03:02:47;;;;;;;0.40;0.40;;;10.90;99.90;;;;;;5067876;28;20041;-75
2023/06/01 03:05:14;;;;;;;0.70;0.70;;;10.90;99.90;;;;;;5051286;28;20080;-75
2023/06/01 03:07:46;;;;;;;0.55;0.55;;;10.90;99.90;;;;;;5051003;28;20087;-73
2023/06/01 03:10:12;;;;;;;2.17;2.03;;;10.90;99.90;;;;;;5067959;28;20048;-74
2023/06/01 03:12:38;;;;;;;;;;;10.90;99.90;;;;;;5068082;28;20048;-74
2023/06/01 03:15:05;;;;;;;0.40;0.40;;;10.90;99.90;;;;;;5068033;28;19947;-74
2023/06/01 03:17:31;;;;;;;0.40;0.40;;;10.90;99.90;;;;;;5067783;28;20418;-74
2023/06/01 03:19:57;;;;;;;0.50;0.50;;;10.90;99.90;;;;;;5067835;28;20060;-74
2023/06/01 03:22:23;;;;;;;0.50;0.40;;;10.90;99.90;;;;;;5051307;28;20139;-74
2023/06/01 03:24:54;;;;;;;0.43;0.43;;;10.90;99.90;;;;;;5066929;28;20393;-74
2023/06/01 03:27:20;;;;;;;0.28;0.28;;;10.90;99.90;;;;;;5067726;28;20045;-74
2023/06/01 03:29:46;;;;;;;0.40;0.40;;;10.90;99.90;;;;;;5066709;28;20080;-74
2023/06/01 03:32:13;;;;;;;0.40;0.40;;;10.80;99.90;;;;;;5067428;28;20482;-74
2023/06/01 03:34:40;;;;;;;0.50;0.50;;;10.80;99.90;;;;;;5066700;28;20044;-73
2023/06/01 03:37:07;;;;;;;0.75;0.70;;;10.90;99.90;;;;;;5066854;28;20086;-73
2023/06/01 03:39:35;;;;;;;0.70;0.70;;;10.90;99.90;;;;;;5066759;28;20346;-73
2023/06/01 03:42:01;;;;;;;0.30;0.30;;;10.80;99.90;;;;;;5069670;28;20482;-73
2023/06/01 03:44:27;;;;;;;1.85;1.75;;;10.90;99.90;;;;;;5079851;28;20048;-74
2023/06/01 03:46:53;;;;;;;0.85;0.70;;;10.80;99.90;;;;;;5067689;28;20459;-73
2023/06/01 03:49:19;;;;;;;2.10;1.02;;;10.90;99.90;;;;;;5068284;28;20516;-73
2023/06/01 03:51:45;;;;;;;0.40;0.40;;;10.90;99.90;;;;;;5075195;28;20453;-74
2023/06/01 03:54:11;;;;;;;0.30;0.30;;;10.80;99.90;;;;;;5076301;28;20036;-74
2023/06/01 03:56:36;;;;;;;0.40;0.40;;;10.90;99.90;;;;;;5067487;28;20564;-74
2023/06/01 03:59:02;;;;;;;0.25;0.25;;;10.80;99.90;;;;;;5051327;28;20044;-74
2023/06/01 04:01:32;;;;;;;0.50;0.50;;;10.80;99.90;;;;;;5067224;28;20481;-74
2023/06/01 04:03:58;;;;;;;0.40;0.40;;;10.80;99.90;;;;;;5051822;28;20044;-74
2023/06/01 04:06:23;;;;;;;0.30;0.30;;;10.90;99.90;;;;;;5067796;28;20036;-73
2023/06/01 04:08:55;;;;;;;0.32;0.32;;;10.90;99.90;;;;;;5070371;28;20043;-74
2023/06/01 04:11:24;;;;;;;0.47;0.47;;;10.90;99.90;;;;;;5055593;28;20045;-74
2023/06/01 04:13:50;;;;;;;0.50;0.50;;;10.80;99.90;;;;;;5071342;28;20040;-73
2023/06/01 04:16:16;;;;;;;0.40;0.40;;;10.90;99.90;;;;;;5071246;28;20505;-73
2023/06/01 04:18:42;;;;;;;1.65;0.68;;;10.90;99.90;;;;;;5070776;28;20079;-74
2023/06/01 04:21:09;;;;;;;0.60;0.60;;;10.90;99.90;;;;;;5054744;28;20048;-74
2023/06/01 04:23:35;;;;;;;0.60;0.60;;;11.00;99.90;;;;;;5054094;28;20449;-73
2023/06/01 04:26:02;;;;;;;0.50;0.50;;;10.90;99.90;;;;;;5070993;28;20443;-73
2023/06/01 04:28:29;;;;;;;0.20;0.20;;;10.90;99.90;;;;;;5071577;28;20363;-73
2023/06/01 04:30:55;;;;;;;0.70;0.70;;;10.90;99.90;;;;;;5070432;28;20052;-73
2023/06/01 04:33:25;;;;;;;0.40;0.40;;;10.90;99.90;;;;;;5070854;28;20052;-74
2023/06/01 04:35:54;;;;;;;0.50;0.50;;;10.90;99.90;;;;;;5070543;28;20048;-74
2023/06/01 04:38:21;;;;;;;0.40;0.40;;;10.90;99.90;;;;;;5070759;28;20036;-74
2023/06/01 04:40:47;;;;;;;0.90;0.90;;;10.90;99.90;;;;;;5045733;28;20046;-74
2023/06/01 04:43:13;;;;;;;;;;;10.90;99.90;;;;;;5079466;28;20438;-72
2023/06/01 04:45:39;;;;;;;0.47;0.45;;;10.90;99.90;;;;;;5070273;28;19924;-74
2023/06/01 04:48:08;;;;;;;0.40;0.40;;;10.90;99.90;;;;;;5054390;28;20048;-74
2023/06/01 04:50:34;;;;;;;1.30;1.20;;;10.90;99.90;;;;;;5070389;28;20036;-74
2023/06/01 04:53:00;;;;;;;0.40;0.40;;;10.90;99.90;;;;;;5070322;28;20040;-74
2023/06/01 04:55:26;;;;;;;0.50;0.50;;;10.90;99.90;;;;;;5071108;28;20296;-75
2023/06/01 04:57:53;;;;;;;0.70;0.70;;;10.90;99.90;;;;;;5050456;28;20398;-74
2023/06/01 05:00:19;;;;;;;1.48;0.50;;;11.00;99.90;;;;;;5034402;28;20052;-74
2023/06/01 05:02:47;;;;;;;0.30;0.30;;;11.00;99.90;;;;;;5050645;28;20435;-74
2023/06/01 05:05:15;;;;;;;0.30;0.30;;;11.00;99.90;;;;;;5050518;28;20037;-74
2023/06/01 05:07:43;;;;;;;0.68;0.68;;;11.00;99.90;;;;;;5049994;28;20041;-74
2023/06/01 05:10:11;;;;;;;0.75;0.75;;;11.00;99.90;;;;;;5050335;28;20128;-74
2023/06/01 05:12:37;;;;;;;0.32;0.32;;;10.90;99.90;;;;;;5050004;28;20045;-74
2023/06/01 05:15:05;;;;;;;0.40;0.40;;;10.90;99.90;;;;;;5065568;28;20052;-73
2023/06/01 05:17:31;;;;;;;0.30;0.30;;;10.90;99.90;;;;;;5070711;28;20086;-74
2023/06/01 05:19:57;;;;;;;0.40;0.40;;;10.90;99.90;;;;;;5053417;28;20076;-74
2023/06/01 05:22:23;;;;;;;0.30;0.30;;;10.90;99.90;;;;;;5070500;28;20155;-74
2023/06/01 05:24:49;;;;;;;0.50;0.50;;;10.90;99.90;;;;;;5067483;28;20041;-74
2023/06/01 05:27:16;;;;;;;0.50;0.50;;;10.90;99.90;;;;;;5050814;28;20107;-74
2023/06/01 05:29:42;;;;;;;0.30;0.30;;;10.90;99.90;;;;;;5049831;28;20497;-74
2023/06/01 05:32:08;;;;;;;8.95;0.88;;;10.90;99.90;;;;;;5049499;28;20049;-74
2023/06/01 05:34:34;;;;;;;0.70;0.70;;;10.90;99.90;;;;;;5061777;28;20127;-74
2023/06/01 05:37:01;;;;;;;0.60;0.60;;;10.90;99.90;;;;;;5077749;28;20131;-74
2023/06/01 05:39:28;;;;;;;0.32;0.32;;;11.00;99.90;;;;;;5089752;28;20066;-74
2023/06/01 05:41:57;;;;;;;0.40;0.40;;;11.00;99.90;;;;;;5105322;28;20040;-74
2023/06/01 05:44:24;;;;;;;0.47;0.47;;;11.00;99.90;;;;;;5069202;28;20048;-74
2023/06/01 05:46:51;;;;;;;0.47;0.47;;;10.90;99.90;;;;;;5068824;28;20057;-74
2023/06/01 05:49:17;;;;;;;0.40;0.40;;;11.00;99.90;;;;;;5069178;28;20055;-74
2023/06/01 05:51:42;;;;;;;0.50;0.50;;;11.00;99.90;;;;;;5059318;28;20039;-73
2023/06/01 05:54:09;;;;;;;0.40;0.40;;;11.00;99.90;;;;;;5060803;28;20748;-74
2023/06/01 05:56:37;;;;;;;0.50;0.50;;;11.10;99.90;;;;;;5069042;28;20490;-74
2023/06/01 05:59:03;;;;;;;0.80;0.80;;;11.10;99.90;;;;;;5068615;28;20044;-73
2023/06/01 06:01:29;;;;;;;0.50;0.50;;;11.10;99.90;;;;;;5052386;28;20040;-73
2023/06/01 06:03:55;;;;;;;;;;;11.10;99.90;;;;;;5069071;28;20139;-74
2023/06/01 06:06:22;;;;;;;0.30;0.30;;;11.10;99.90;;;;;;5052490;28;20309;-74
2023/06/01 06:08:48;;;;;;;0.40;0.40;;;11.20;99.90;;;;;;5052065;28;20063;-74
2023/06/01 06:11:14;;;;;;;0.40;0.40;;;11.20;99.90;;;;;;5052511;28;20051;-74
2023/06/01 06:13:40;;;;;;;0.20;0.20;;;11.30;99.90;;;;;;5068939;28;20044;-73
2023/06/01 06:16:05;;;;;;;0.50;0.50;;;11.30;99.90;;;;;;5068244;28;20123;-74
2023/06/01 06:18:31;;;;;;;0.30;0.30;;;11.30;99.90;;;;;;5068805;28;20036;-74
2023/06/01 06:20:57;;;;;;;0.63;0.63;;;11.30;99.90;;;;;;5052067;28;20044;-74
2023/06/01 06:23:23;;;;;;;0.40;0.40;;;11.30;99.90;;;;;;5052590;28;20822;-73
2023/06/01 06:25:49;;;;;;;1.85;0.60;;;11.30;99.90;;;;;;5058435;28;20092;-73
2023/06/01 06:28:15;;;;;;;0.30;0.30;;;11.30;99.90;;;;;;5032465;28;20501;-74
2023/06/01 06:30:41;;;;;;;0.30;0.30;;;11.30;99.90;;;;;;5048303;28;20129;-74
2023/06/01 06:33:06;;;;;;;0.82;0.82;;;11.40;99.90;;;;;;5062905;28;20545;-74
2023/06/01 06:35:32;;;;;;;0.30;0.30;;;11.40;99.90;;;;;;5068719;28;20394;-74
2023/06/01 06:37:58;;;;;;;0.52;0.52;;;11.50;99.90;;;;;;5068183;28;20135;-74
2023/06/01 06:40:24;;;;;;;;;;;11.60;99.90;;;;;;5069314;28;20436;-74
2023/06/01 06:42:50;;;;;;;1.02;0.95;;;11.60;99.90;;;;;;5076629;28;19916;-74
2023/06/01 06:45:16;;;;;;;1.33;1.30;;;11.50;99.90;;;;;;5074442;28;20044;-73
2023/06/01 06:47:45;;;;;;;0.30;0.30;;;11.60;99.90;;;;;;5068419;28;20048;-74
2023/06/01 06:50:11;;;;;;;0.68;0.68;;;11.50;99.90;;;;;;5068950;28;20051;-74
2023/06/01 06:52:37;;;;;;;;;;;11.60;99.90;;;;;;5032225;28;20052;-74
2023/06/01 06:55:03;;;;;;;0.35;0.35;;;11.50;99.90;;;;;;5067102;28;19920;-74
2023/06/01 06:57:28;;;;;;;0.73;0.73;;;11.50;99.90;;;;;;5068218;28;20056;-74
2023/06/01 06:59:54;;;;;;;0.30;0.30;;;11.50;99.90;;;;;;5067807;28;20040;-74
2023/06/01 07:02:20;;;;;;;0.30;0.30;;;11.50;99.90;;;;;;5068113;28;20059;-75
2023/06/01 07:04:45;;;;;;;0.75;0.75;;;11.40;99.90;;;;;;5068385;28;20119;-74
2023/06/01 07:07:11;;;;;;;0.30;0.30;;;11.40;99.90;;;;;;5067723;28;20044;-74
2023/06/01 07:09:37;;;;;;;0.30;0.30;;;11.40;99.90;;;;;;5068055;28;20048;-74
2023/06/01 07:12:03;;;;;;;0.30;0.30;;;11.40;99.90;;;;;;5067573;28;20044;-74
2023/06/01 07:14:28;;;;;;;0.55;0.55;;;11.50;99.90;;;;;;5051489;28;20078;-74
2023/06/01 07:16:54;;;;;;;0.22;0.22;;;11.50;99.90;;;;;;5067389;28;20050;-75
2023/06/01 07:19:20;;;;;;;0.30;0.30;;;11.60;99.90;;;;;;5068139;28;20041;-74
2023/06/01 07:21:46;;;;;;;1.13;0.45;;;11.70;99.90;;;;;;5051339;28;20036;-74
2023/06/01 07:24:12;;;;;;;0.25;0.25;;;11.80;99.90;;;;;;5067806;28;20040;-74
2023/06/01 07:26:37;;;;;;;0.30;0.30;;;11.80;99.90;;;;;;5050942;28;20104;-74
2023/06/01 07:29:03;;;;;;;0.30;0.30;;;11.90;99.90;;;;;;5055675;28;20058;-74
2023/06/01 07:31:29;;;;;;;0.22;0.22;;;12.00;99.90;;;;;;5071656;28;20052;-74
2023/06/01 07:33:57;;;;;;;1.00;1.00;;;12.00;99.90;;;;;;5098197;28;20657;-74
2023/06/01 07:36:23;;;;;;;0.25;0.25;;;11.90;99.90;;;;;;5051777;28;20040;-74
2023/06/01 07:38:50;;;;;;;;;;;11.90;99.90;;;;;;5052262;28;20448;-74
2023/06/01 07:41:16;;;;;;;0.30;0.30;;;11.80;99.90;;;;;;5067776;28;20358;-75
2023/06/01 07:43:41;;;;;;;1.25;0.40;;;11.80;99.90;;;;;;5085443;28;20040;-74
2023/06/01 07:46:07;;;;;;;0.50;0.50;;;11.70;99.90;;;;;;5054342;28;20061;-74
2023/06/01 07:48:36;;;;;;;0.40;0.40;;;11.70;99.90;;;;;;5071685;28;20421;-75
2023/06/01 07:51:06;;;;;;;0.30;0.30;;;11.80;99.90;;;;;;5056490;28;20040;-74
2023/06/01 07:53:32;;;;;;;0.30;0.30;;;11.80;99.90;;;;;;5068356;28;20123;-74
2023/06/01 07:55:58;;;;;;;0.63;0.60;;;11.80;99.90;;;;;;5071150;28;20135;-75
2023/06/01 07:58:23;;;;;;;0.30;0.30;;;11.90;99.90;;;;;;5071925;28;20048;-74
2023/06/01 08:00:49;;;;;;;0.40;0.40;;;12.00;99.90;;;;;;5071423;28;20397;-74
2023/06/01 08:03:15;;;;;;;0.22;0.22;;;12.10;99.90;;;;;;5071177;28;20036;-74
2023/06/01 08:05:44;;;;;;;;;;;12.20;99.90;;;;;;5072173;28;20128;-74
2023/06/01 08:08:10;;;;;;;0.90;0.60;;;12.40;99.90;;;;;;5071633;28;19924;-74
2023/06/01 08:10:38;;;;;;;;;;;12.40;99.90;;;;;;5072819;28;20037;-74
2023/06/01 08:13:04;;;;;;;0.50;0.50;;;12.50;99.90;;;;;;5071252;28;20396;-74
2023/06/01 08:15:30;;;;;;;;;;;12.50;99.90;;;;;;5072490;28;20058;-74
2023/06/01 08:17:56;;;;;;;0.30;0.30;;;12.40;99.90;;;;;;5071610;28;19924;-74
2023/06/01 08:20:23;;;;;;;0.20;0.20;;;12.30;99.90;;;;;;5071863;28;20390;-74
2023/06/01 08:22:50;;;;;;;0.47;0.47;;;12.30;99.90;;;;;;5071796;28;20421;-74
2023/06/01 08:25:17;;;;;;;0.43;0.43;;;12.20;99.90;;;;;;5058995;28;20063;-74
2023/06/01 08:27:43;;;;;;;0.30;0.30;;;12.20;99.90;;;;;;5091328;28;20039;-74
2023/06/01 08:30:10;;;;;;;0.43;0.43;;;12.20;99.90;;;;;;5108508;28;20101;-74
2023/06/01 08:32:36;;;;;;;0.38;0.38;;;12.30;99.90;;;;;;5109009;28;20047;-74
2023/06/01 08:35:02;;;;;;;0.30;0.30;;;12.30;99.90;;;;;;5075063;28;20055;-73
2023/06/01 08:37:29;;;;;;;0.30;0.30;;;12.30;99.90;;;;;;5071153;28;20065;-74
2023/06/01 08:39:55;;;;;;;1.30;1.23;;;12.20;99.90;;;;;;5054553;28;20041;-74
2023/06/01 08:42:34;;;;;;;0.55;0.55;;;12.20;99.90;;;;;;5064303;28;20546;-73
2023/06/01 08:45:05;;;;;;;0.93;0.93;;;12.30;99.90;;;;;;5078772;28;20473;-74
2023/06/01 08:47:32;;;;;;;0.30;0.30;;;12.20;99.90;;;;;;5053679;28;20092;-74
2023/06/01 08:50:01;;;;;;;0.30;0.30;;;12.20;99.90;;;;;;5070526;28;20057;-73
2023/06/01 08:52:31;;;;;;;0.85;0.85;;;12.10;99.90;;;;;;5070429;28;20053;-74
2023/06/01 08:54:59;;;;;;;0.30;0.30;;;12.20;99.90;;;;;;5069997;28;20144;-73
2023/06/01 08:57:25;;;;;;;3.80;1.15;;;12.20;99.90;;;;;;5070124;28;20056;-73
2023/06/01 08:59:51;;;;;;;;;;;12.30;99.90;;;;;;5054269;28;20040;-74
2023/06/01 09:02:17;;;;;;;0.25;0.25;;;12.40;99.90;;;;;;5070475;28;20027;-73
2023/06/01 09:04:44;;;;;;;0.30;0.30;;;12.50;99.90;;;;;;5070495;28;20047;-74
2023/06/01 09:07:11;;;;;;;0.20;0.20;;;12.50;99.90;;;;;;5053568;28;20111;-74
2023/06/01 09:09:37;;;;;;;0.40;0.40;;;12.60;99.90;;;;;;5070476;28;20050;-74
2023/06/01 09:12:31;;;;;;;0.50;0.50;;;12.70;99.90;;;;;;5070030;28;20044;-74
2023/06/01 09:15:12;;;;;;;1.13;0.88;;;12.70;99.90;;;;;;5070742;28;20056;-74
2023/06/01 09:17:39;;;;;;;0.65;0.65;;;12.70;99.90;;;;;;5070088;28;20106;-74
2023/06/01 09:20:06;;;;;;;0.65;0.47;;;12.80;99.90;;;;;;5070959;28;20048;-74
2023/06/01 09:22:45;;;;;;;0.57;0.38;;;12.80;99.90;;;;;;5083090;28;20101;-74
2023/06/01 09:25:13;;;;;;;0.30;0.30;;;12.90;99.90;;;;;;5084945;28;20043;-73
2023/06/01 09:27:51;;;;;;;0.30;0.30;;;13.00;99.90;;;;;;5069801;28;20131;-73
2023/06/01 09:30:20;;;;;;;0.30;0.30;;;13.10;99.90;;;;;;5070222;28;20097;-74
2023/06/01 09:32:55;;;;;;;0.20;0.20;;;13.10;99.90;;;;;;5053660;28;20133;-73
2023/06/01 09:35:48;;;;;;;0.52;0.40;;;13.00;99.90;;;;;;5069422;28;20086;-74
2023/06/01 09:38:24;;;;;;;0.95;0.95;;;12.90;99.90;;;;;;5048536;28;20518;-74
2023/06/01 09:41:01;;;;;;;0.13;0.13;;;12.90;99.90;;;;;;5049948;28;20056;-73
2023/06/01 09:43:27;;;;;;;0.30;0.30;;;12.90;99.90;;;;;;5060203;28;20051;-73
2023/06/01 09:46:08;;;;;;;0.30;0.30;;;12.90;99.90;;;;;;5070041;28;20044;-73
2023/06/01 09:48:34;;;;;;;0.40;0.40;;;12.90;99.90;;;;;;5069373;28;20402;-74
2023/06/01 09:51:00;;;;;;;0.30;0.30;;;13.00;99.90;;;;;;5069609;28;20032;-74
2023/06/01 09:53:26;;;;;;;0.30;0.30;;;13.10;99.90;;;;;;5069425;28;20086;-74
2023/06/01 09:56:00;;;;;;;0.30;0.30;;;13.10;99.90;;;;;;5069595;28;20044;-74
2023/06/01 09:58:26;;;;;;;0.20;0.20;;;13.20;99.90;;;;;;5069338;28;20048;-74
2023/06/01 10:00:52;;;;;;;0.30;0.30;;;13.30;99.90;;;;;;5069020;28;20131;-74
2023/06/01 10:03:19;;;;;;;;;;;13.40;99.90;;;;;;5052722;28;20040;-74
2023/06/01 10:05:46;;;;;;;0.30;0.30;;;13.40;99.90;;;;;;5068110;28;20392;-74
2023/06/01 10:08:13;;;;;;;0.40;0.40;;;13.40;99.90;;;;;;5069091;28;20053;-74
2023/06/01 10:10:41;;;;;;;0.65;0.65;;;13.40;99.90;;;;;;5069404;28;20049;-73
2023/06/01 10:13:07;;;;;;;0.40;0.40;;;13.40;99.90;;;;;;5068739;28;20040;-74
2023/06/01 10:15:33;;;;;;;0.50;0.50;;;13.60;99.90;;;;;;5069300;28;20067;-74
2023/06/01 10:18:05;;;;;;;;;;;13.60;99.90;;;;;;5075518;28;20409;-74
2023/06/01 10:20:35;;;;;;;0.63;0.50;;;13.60;99.90;;;;;;5088971;28;19919;-74
2023/06/01 10:23:02;;;;;;;0.10;0.10;;;13.50;99.90;;;;;;5089214;28;20058;-74
2023/06/01 10:25:49;;;;;;;0.45;0.45;;;13.50;99.90;;;;;;5081148;28;20371;-74
2023/06/01 10:28:17;;;;;;;0.50;0.50;;;13.60;99.90;;;;;;5068717;28;20044;-74
2023/06/01 10:30:42;;;;;;;0.43;0.43;;;13.60;99.90;;;;;;5068753;28;20176;-74
2023/06/01 10:33:08;;;;;;;0.45;0.45;;;13.70;99.90;;;;;;5068186;28;20654;-73
2023/06/01 10:35:50;;;;;;;;;;;13.80;99.90;;;;;;5068990;28;20051;-74
2023/06/01 10:38:19;;;;;;;0.30;0.30;;;13.80;99.90;;;;;;5068551;28;20301;-74
2023/06/01 10:40:46;;;;;;;0.40;0.40;;;13.80;99.90;;;;;;5068590;28;20521;-73
2023/06/01 10:43:36;;;;;;;0.20;0.20;;;13.80;99.90;;;;;;5079581;28;20125;-74
2023/06/01 10:46:02;;;;;;;0.40;0.40;;;13.80;99.90;;;;;;5048087;28;20136;-73
2023/06/01 10:48:47;;;;;;;;;;;13.80;99.90;;;;;;5037976;28;20040;-74
2023/06/01 10:51:20;;;;;;;0.30;0.30;;;14.00;99.90;;;;;;5071223;28;19916;-74
2023/06/01 10:53:46;;;;;;;0.28;0.28;;;14.00;99.90;;;;;;5079757;28;20090;-74
2023/06/01 10:56:23;;;;;;;0.22;0.22;;;14.00;99.90;;;;;;5051464;28;20044;-74
2023/06/01 10:59:07;;;;;;;0.30;0.30;;;14.00;99.90;;;;;;5068664;28;20079;-74
2023/06/01 11:01:35;;;;;;;0.20;0.20;;;14.20;99.90;;;;;;5068463;28;20080;-73
2023/06/01 11:04:01;;;;;;;0.20;0.20;;;14.30;99.90;;;;;;5069709;28;20037;-74
2023/06/01 11:06:35;;;;;;;0.52;0.52;;;14.40;99.90;;;;;;5067948;28;20045;-74
2023/06/01 11:09:06;;;;;;;0.63;0.63;;;14.50;99.90;;;;;;5067931;28;20051;-74
2023/06/01 11:11:55;;;;;;;1.17;0.32;;;14.60;99.90;;;;;;5067701;28;20093;-74
2023/06/01 11:14:33;;;;;;;2.20;1.05;;;14.70;99.90;;;;;;5075097;28;20055;-74
2023/06/01 11:17:28;;;;;;;0.30;0.30;;;14.60;99.90;;;;;;5088298;28;20059;-74
2023/06/01 11:20:00;;;;;;;0.20;0.20;;;14.50;99.90;;;;;;5088522;28;20055;-74
2023/06/01 11:22:33;;;;;;;0.20;0.20;;;14.60;99.90;;;;;;5087960;28;20040;-74
2023/06/01 11:25:04;;;;;;;0.20;0.20;;;14.70;99.90;;;;;;5067975;28;20497;-74
2023/06/01 11:27:30;;;;;;;0.30;0.30;;;14.70;99.90;;;;;;5067997;28;20060;-74
2023/06/01 11:29:56;;;;;;;0.40;0.40;;;14.70;99.90;;;;;;5068021;28;20051;-74
2023/06/01 11:32:23;;;;;;;0.30;0.30;;;14.70;99.90;;;;;;5051431;28;20080;-74
2023/06/01 11:34:51;;;;;;;0.30;0.30;;;14.60;99.90;;;;;;5068355;28;20496;-75
2023/06/01 11:37:18;;;;;;;0.30;0.30;;;14.40;99.90;;;;;;5068872;28;20132;-74
2023/06/01 11:39:47;;;;;;;0.20;0.20;;;14.20;99.90;;;;;;5067987;28;20037;-74
2023/06/01 11:42:15;;;;;;;0.55;0.55;;;14.00;99.90;;;;;;5071011;28;20081;-74
2023/06/01 11:44:44;;;;;;;0.30;0.30;;;13.90;99.90;;;;;;5095878;28;20063;-74
2023/06/01 11:47:11;;;;;;;0.30;0.30;;;13.80;99.90;;;;;;5067507;28;20052;-74
2023/06/01 11:49:43;;;;;;;0.90;0.73;;;13.80;99.90;;;;;;5067998;28;20052;-74
2023/06/01 11:52:09;;;;;;;0.45;0.45;;;13.70;99.90;;;;;;5067711;28;20566;-74
2023/06/01 11:54:36;;;;;;;0.43;0.43;;;13.70;99.90;;;;;;5051089;28;20048;-74
2023/06/01 11:57:03;;;;;;;0.30;0.30;;;13.60;99.90;;;;;;5067507;28;20051;-74
2023/06/01 11:59:40;;;;;;;0.40;0.40;;;13.70;99.90;;;;;;5067303;28;20106;-73
2023/06/01 12:02:29;;;;;;;0.30;0.30;;;13.90;99.90;;;;;;5068229;28;20036;-75
2023/06/01 12:04:57;;;;;;;0.40;0.40;;;14.00;99.90;;;;;;5068094;28;20503;-74
2023/06/01 12:07:24;;;;;;;0.30;0.30;;;14.00;99.90;;;;;;5067632;28;20397;-74
2023/06/01 12:09:53;;;;;;;0.28;0.28;;;13.90;99.90;;;;;;5068558;28;20051;-74
2023/06/01 12:12:24;;;;;;;2.75;1.08;;;13.70;99.90;;;;;;5087691;28;20455;-74
2023/06/01 12:14:51;;;;;;;0.80;0.68;;;13.80;99.90;;;;;;5058876;28;20040;-74
2023/06/01 12:17:16;;;;;;;0.30;0.30;;;13.90;99.90;;;;;;5068291;28;20056;-75
2023/06/01 12:19:47;;;;;;;0.20;0.20;;;13.80;99.90;;;;;;5067844;28;20097;-74
2023/06/01 12:22:14;;;;;;;0.70;0.70;;;13.80;99.90;;;;;;5067745;28;20048;-74
2023/06/01 12:24:40;;;;;;;0.50;0.50;;;13.70;99.90;;;;;;5051257;28;20522;-75
2023/06/01 12:27:17;;;;;;;0.30;0.30;;;13.60;99.90;;;;;;5034235;28;20048;-74
2023/06/01 12:29:50;;;;;;;0.20;0.20;;;13.60;99.90;;;;;;5070792;28;20055;-75
2023/06/01 12:32:17;;;;;;;0.32;0.32;;;13.60;99.90;;;;;;5071053;28;20051;-75
2023/06/01 12:34:47;;;;;;;0.32;0.32;;;13.60;99.90;;;;;;5071672;28;20509;-74
2023/06/01 12:37:20;;;;;;;0.40;0.40;;;13.60;99.90;;;;;;5072004;28;20053;-74
2023/06/01 12:39:59;;;;;;;0.28;0.28;;;13.50;99.90;;;;;;5072897;28;20040;-73
2023/06/01 12:42:39;;;;;;;0.30;0.30;;;13.40;99.90;;;;;;5076814;28;20418;-75
2023/06/01 12:45:06;;;;;;;0.30;0.30;;;13.40;99.90;;;;;;5078273;28;20510;-75
2023/06/01 12:47:37;;;;;;;0.50;0.50;;;13.40;99.90;;;;;;5070711;28;20052;-75
2023/06/01 12:50:05;;;;;;;1.08;0.73;;;13.40;99.90;;;;;;5071066;28;20048;-74
2023/06/01 12:52:31;;;;;;;0.63;0.45;;;13.40;99.90;;;;;;5070570;28;20055;-74
2023/06/01 12:54:57;;;;;;;0.65;0.50;;;13.30;99.90;;;;;;5071038;28;20413;-76
2023/06/01 12:57:23;;;;;;;0.30;0.30;;;13.20;99.90;;;;;;5070730;28;20378;-75